createdAt,value
2023-03-01T00:01:10.232Z,44.40
2023-03-01T00:03:37.726Z,42.90
2023-03-01T00:06:05.348Z,41.00
2023-03-01T00:08:33.817Z,38.60
2023-03-01T00:11:01.416Z,40.60
2023-03-01T00:13:29.062Z,37.90
2023-03-01T00:15:56.516Z,38.20
2023-03-01T00:18:23.960Z,35.90
2023-03-01T00:20:52.231Z,37.80
2023-03-01T00:23:19.688Z,36.00
2023-03-01T00:25:47.256Z,34.80
2023-03-01T00:28:14.777Z,33.80
2023-03-01T00:30:42.269Z,33.70
2023-03-01T00:33:09.758Z,32.80
2023-03-01T00:35:37.254Z,33.20
2023-03-01T00:38:04.936Z,34.50
2023-03-01T00:40:32.463Z,29.50
2023-03-01T00:42:59.968Z,26.90
2023-03-01T00:45:28.000Z,28.30
2023-03-01T00:47:55.586Z,30.60
2023-03-01T00:50:23.142Z,37.10
2023-03-01T00:52:50.613Z,39.90
2023-03-01T00:55:18.135Z,37.50
2023-03-01T00:57:45.647Z,33.80
2023-03-01T01:00:13.115Z,31.30
2023-03-01T01:02:40.569Z,29.50
2023-03-01T01:05:08.344Z,26.60
2023-03-01T01:07:35.823Z,16.30
2023-03-01T01:10:03.371Z,27.80
2023-03-01T01:12:30.926Z,28.10
2023-03-01T01:14:58.379Z,26.20
2023-03-01T01:17:25.921Z,29.30
2023-03-01T01:19:53.392Z,30.80
2023-03-01T01:22:20.816Z,33.30
2023-03-01T01:24:48.261Z,34.20
2023-03-01T01:27:15.942Z,35.10
2023-03-01T01:29:43.546Z,35.80
2023-03-01T01:32:11.050Z,35.40
2023-03-01T01:34:38.630Z,33.40
2023-03-01T01:37:08.808Z,32.50
2023-03-01T01:39:36.499Z,31.80
2023-03-01T01:42:03.996Z,31.00
2023-03-01T01:44:31.546Z,31.50
2023-03-01T01:46:59.024Z,31.70
2023-03-01T01:49:26.643Z,32.90
2023-03-01T01:51:54.180Z,34.50
2023-03-01T01:54:21.680Z,31.80
2023-03-01T01:56:49.184Z,30.30
2023-03-01T01:59:16.784Z,29.00
2023-03-01T02:01:44.225Z,29.20
2023-03-01T02:04:11.835Z,27.30
2023-03-01T02:06:39.266Z,28.90
2023-03-01T02:09:06.748Z,27.00
2023-03-01T02:11:34.701Z,27.30
2023-03-01T02:14:02.360Z,24.90
2023-03-01T02:16:30.362Z,25.30
2023-03-01T02:18:58.110Z,24.10
2023-03-01T02:21:25.543Z,25.80
2023-03-01T02:23:53.008Z,25.20
2023-03-01T02:26:20.545Z,26.70
2023-03-01T02:28:48.596Z,25.10
2023-03-01T02:31:54.859Z,27.70
2023-03-01T02:34:22.327Z,24.90
2023-03-01T02:36:49.780Z,27.70
2023-03-01T02:39:20.044Z,27.70
2023-03-01T02:41:47.980Z,28.10
2023-03-01T02:44:15.429Z,27.90
2023-03-01T02:46:43.189Z,26.40
2023-03-01T02:49:10.649Z,26.70
2023-03-01T02:51:38.083Z,26.60
2023-03-01T02:54:05.741Z,27.70
2023-03-01T02:56:33.166Z,28.00
2023-03-01T02:59:01.685Z,27.70
2023-03-01T03:01:38.525Z,26.40
2023-03-01T03:04:06.052Z,25.40
2023-03-01T03:06:33.755Z,27.80
2023-03-01T03:09:01.302Z,23.80
2023-03-01T03:11:28.798Z,26.90
2023-03-01T03:13:56.980Z,29.00
2023-03-01T03:16:24.678Z,26.80
2023-03-01T03:18:52.207Z,26.80
2023-03-01T03:21:19.680Z,26.90
2023-03-01T03:23:47.241Z,25.30
2023-03-01T03:26:15.987Z,27.40
2023-03-01T03:28:43.430Z,24.70
2023-03-01T03:31:10.946Z,23.30
2023-03-01T03:33:38.539Z,26.50
2023-03-01T03:36:06.045Z,24.00
2023-03-01T03:38:33.562Z,22.90
2023-03-01T03:41:04.049Z,21.90
2023-03-01T03:43:31.674Z,24.30
2023-03-01T03:45:59.305Z,27.10
2023-03-01T03:48:26.855Z,25.20
2023-03-01T03:50:54.401Z,24.60
2023-03-01T03:53:22.076Z,28.10
2023-03-01T03:55:52.769Z,29.10
2023-03-01T03:58:20.884Z,32.40
2023-03-01T04:00:48.543Z,32.80
2023-03-01T04:03:16.569Z,31.40
2023-03-01T04:05:44.008Z,29.70
2023-03-01T04:08:11.477Z,27.40
2023-03-01T04:10:38.976Z,30.30
2023-03-01T04:13:06.831Z,29.10
2023-03-01T04:15:34.391Z,31.30
2023-03-01T04:18:01.893Z,29.00
2023-03-01T04:20:29.442Z,29.60
2023-03-01T04:22:56.961Z,29.80
2023-03-01T04:25:24.454Z,29.60
2023-03-01T04:27:51.915Z,28.60
2023-03-01T04:30:19.386Z,28.90
2023-03-01T04:32:46.827Z,29.60
2023-03-01T04:35:14.271Z,29.70
2023-03-01T04:37:42.717Z,27.30
2023-03-01T04:40:17.299Z,27.70
2023-03-01T04:42:44.869Z,28.00
2023-03-01T04:45:14.213Z,26.70
2023-03-01T04:47:41.787Z,24.80
2023-03-01T04:50:09.380Z,25.30
2023-03-01T04:52:36.854Z,24.40
2023-03-01T04:55:04.542Z,22.00
2023-03-01T04:57:32.090Z,25.20
2023-03-01T04:59:59.715Z,24.00
2023-03-01T05:02:27.223Z,25.70
2023-03-01T05:04:58.612Z,20.60
2023-03-01T05:07:27.322Z,22.30
2023-03-01T05:09:55.440Z,22.60
2023-03-01T05:12:22.996Z,15.20
2023-03-01T05:14:52.360Z,26.40
2023-03-01T05:17:19.805Z,26.10
2023-03-01T05:19:47.319Z,28.30
2023-03-01T05:22:14.796Z,26.10
2023-03-01T05:24:42.246Z,26.00
2023-03-01T05:27:10.170Z,23.90
2023-03-01T05:29:37.609Z,23.40
2023-03-01T05:32:05.213Z,26.10
2023-03-01T05:34:32.748Z,22.00
2023-03-01T05:37:00.216Z,25.90
2023-03-01T05:39:27.708Z,31.90
2023-03-01T05:41:55.268Z,32.10
2023-03-01T05:44:22.749Z,30.70
2023-03-01T05:46:50.498Z,28.80
2023-03-01T05:49:18.022Z,31.50
2023-03-01T05:51:45.457Z,32.40
2023-03-01T05:54:12.960Z,31.00
2023-03-01T05:56:40.865Z,31.70
2023-03-01T05:59:08.297Z,31.50
2023-03-01T06:01:35.802Z,33.00
2023-03-01T06:04:03.474Z,33.80
2023-03-01T06:06:31.368Z,33.00
2023-03-01T06:08:59.360Z,30.70
2023-03-01T06:11:27.090Z,33.00
2023-03-01T06:13:54.548Z,29.70
2023-03-01T06:16:22.001Z,40.90
2023-03-01T06:18:49.484Z,39.90
2023-03-01T06:21:16.975Z,35.00
2023-03-01T06:23:44.438Z,33.80
2023-03-01T06:26:11.930Z,32.80
2023-03-01T06:28:39.400Z,24.50
2023-03-01T06:31:09.833Z,34.70
2023-03-01T06:33:37.571Z,25.30
2023-03-01T06:36:05.290Z,19.50
2023-03-01T06:38:32.868Z,18.60
2023-03-01T06:41:00.554Z,28.40
2023-03-01T06:43:28.011Z,34.70
2023-03-01T06:45:55.454Z,32.30
2023-03-01T06:48:23.166Z,30.70
2023-03-01T06:50:50.730Z,29.90
2023-03-01T06:53:18.318Z,30.60
2023-03-01T06:55:46.120Z,24.10
2023-03-01T06:58:14.618Z,28.50
2023-03-01T07:00:44.026Z,24.70
2023-03-01T07:03:11.566Z,30.40
2023-03-01T07:05:39.094Z,25.70
2023-03-01T07:08:06.570Z,29.90
2023-03-01T07:10:34.107Z,28.10
2023-03-01T07:13:01.834Z,27.40
2023-03-01T07:15:29.321Z,24.70
2023-03-01T07:17:56.819Z,27.50
2023-03-01T07:20:26.195Z,27.30
2023-03-01T07:22:53.792Z,26.80
2023-03-01T07:25:21.382Z,27.20
2023-03-01T07:27:48.898Z,25.10
2023-03-01T07:30:16.368Z,22.90
2023-03-01T07:32:43.977Z,22.60
2023-03-01T07:35:11.631Z,23.10
2023-03-01T07:37:39.081Z,21.80
2023-03-01T07:40:06.788Z,24.60
2023-03-01T07:42:34.284Z,24.50
2023-03-01T07:45:01.797Z,18.60
2023-03-01T07:47:29.413Z,17.30
2023-03-01T07:49:56.979Z,19.20
2023-03-01T07:52:24.444Z,18.00
2023-03-01T07:54:51.982Z,12.30
2023-03-01T07:57:19.806Z,19.80
2023-03-01T07:59:47.415Z,13.90
2023-03-01T08:02:16.139Z,13.90
2023-03-01T08:04:43.887Z,17.80
2023-03-01T08:07:11.351Z,24.70
2023-03-01T08:09:39.272Z,20.50
2023-03-01T08:12:06.770Z,24.90
2023-03-01T08:14:34.242Z,24.60
2023-03-01T08:17:04.016Z,11.80
2023-03-01T08:19:31.646Z,24.20
2023-03-01T08:22:00.773Z,25.20
2023-03-01T08:24:28.395Z,18.20
2023-03-01T08:26:55.996Z,23.30
2023-03-01T08:29:23.476Z,15.50
2023-03-01T08:31:51.105Z,22.40
2023-03-01T08:34:18.632Z,18.10
2023-03-01T08:36:46.085Z,26.50
2023-03-01T08:39:13.631Z,21.70
2023-03-01T08:41:41.250Z,25.30
2023-03-01T08:44:08.704Z,21.40
2023-03-01T08:46:37.049Z,22.50
2023-03-01T08:49:04.522Z,22.60
2023-03-01T08:51:37.501Z,18.90
2023-03-01T08:54:04.928Z,12.30
2023-03-01T08:56:32.661Z,15.50
2023-03-01T08:59:00.522Z,16.60
2023-03-01T09:01:28.097Z,18.50
2023-03-01T09:03:55.585Z,16.00
2023-03-01T09:06:23.121Z,16.40
2023-03-01T09:08:50.607Z,20.40
2023-03-01T09:11:18.255Z,14.80
2023-03-01T09:13:46.081Z,19.20
2023-03-01T09:16:14.093Z,14.50
2023-03-01T09:18:41.699Z,16.20
2023-03-01T09:21:09.313Z,21.00
2023-03-01T09:23:40.145Z,17.40
2023-03-01T09:26:07.660Z,17.00
2023-03-01T09:28:35.150Z,20.10
2023-03-01T09:31:05.746Z,22.20
2023-03-01T09:33:33.328Z,17.10
2023-03-01T09:36:01.011Z,20.30
2023-03-01T09:38:28.661Z,17.80
2023-03-01T09:40:56.229Z,17.20
2023-03-01T09:43:23.750Z,18.90
2023-03-01T09:45:51.233Z,18.40
2023-03-01T09:48:18.880Z,16.50
2023-03-01T09:50:47.811Z,12.00
2023-03-01T09:53:15.339Z,13.80
2023-03-01T09:55:42.855Z,15.90
2023-03-01T09:58:10.474Z,17.80
2023-03-01T10:00:37.979Z,18.60
2023-03-01T10:03:05.478Z,16.70
2023-03-01T10:05:33.212Z,16.80
2023-03-01T10:08:00.669Z,18.70
2023-03-01T10:10:28.391Z,14.10
2023-03-01T10:12:56.158Z,16.40
2023-03-01T10:15:23.797Z,17.10
2023-03-01T10:17:51.277Z,16.90
2023-03-01T10:20:19.034Z,17.90
2023-03-01T10:22:51.482Z,14.30
2023-03-01T10:25:19.887Z,13.20
2023-03-01T10:27:47.694Z,12.80
2023-03-01T10:30:17.184Z,13.50
2023-03-01T10:32:44.745Z,13.60
2023-03-01T10:35:12.293Z,15.30
2023-03-01T10:37:40.647Z,13.60
2023-03-01T10:40:09.281Z,11.50
2023-03-01T10:42:37.655Z,11.40
2023-03-01T10:45:05.200Z,12.90
2023-03-01T10:47:32.805Z,13.00
2023-03-01T10:50:00.497Z,11.50
2023-03-01T10:52:28.289Z,14.30
2023-03-01T10:54:55.990Z,11.70
2023-03-01T10:57:23.451Z,11.00
2023-03-01T10:59:51.496Z,12.40
2023-03-01T11:02:25.067Z,13.00
2023-03-01T11:04:53.376Z,11.30
2023-03-01T11:07:20.882Z,9.40
2023-03-01T11:09:48.495Z,10.00
2023-03-01T11:12:16.416Z,8.90
2023-03-01T11:14:44.138Z,10.80
2023-03-01T11:17:11.611Z,10.20
2023-03-01T11:19:39.230Z,10.80
2023-03-01T11:22:06.952Z,11.00
2023-03-01T11:24:34.451Z,10.60
2023-03-01T11:27:04.727Z,7.30
2023-03-01T11:29:40.045Z,9.80
2023-03-01T11:32:14.440Z,9.80
2023-03-01T11:34:42.169Z,8.90
2023-03-01T11:37:09.720Z,10.00
2023-03-01T11:39:37.171Z,8.70
2023-03-01T11:42:18.013Z,11.50
2023-03-01T11:44:46.695Z,10.50
2023-03-01T11:47:14.469Z,11.30
2023-03-01T11:49:42.010Z,11.20
2023-03-01T11:52:09.568Z,5.90
2023-03-01T11:54:37.108Z,10.40
2023-03-01T11:57:04.843Z,9.50
2023-03-01T11:59:32.391Z,10.70
2023-03-01T12:01:59.965Z,8.70
2023-03-01T12:04:27.491Z,9.90
2023-03-01T12:06:56.715Z,9.00
2023-03-01T12:09:25.086Z,9.00
2023-03-01T12:11:52.592Z,6.20
2023-03-01T12:14:20.036Z,7.30
2023-03-01T12:16:48.732Z,8.60
2023-03-01T12:19:16.294Z,8.90
2023-03-01T12:21:43.738Z,7.60
2023-03-01T12:24:11.268Z,8.90
2023-03-01T12:26:38.741Z,7.70
2023-03-01T12:29:06.378Z,8.10
2023-03-01T12:31:34.300Z,8.70
2023-03-01T12:34:02.250Z,7.30
2023-03-01T12:36:30.235Z,8.10
2023-03-01T12:38:57.978Z,6.50
2023-03-01T12:41:25.724Z,7.20
2023-03-01T12:43:53.223Z,9.10
2023-03-01T12:46:20.704Z,8.40
2023-03-01T12:48:48.204Z,7.40
2023-03-01T12:51:15.696Z,6.30
2023-03-01T12:53:43.231Z,7.60
2023-03-01T12:56:10.931Z,7.60
2023-03-01T12:58:49.128Z,6.60
2023-03-01T13:01:17.685Z,6.00
2023-03-01T13:03:45.305Z,7.20
2023-03-01T13:06:12.832Z,6.80
2023-03-01T13:08:40.402Z,7.70
2023-03-01T13:11:07.952Z,8.30
2023-03-01T13:13:35.531Z,6.00
2023-03-01T13:16:03.116Z,6.50
2023-03-01T13:18:30.828Z,8.00
2023-03-01T13:20:58.598Z,8.60
2023-03-01T13:23:26.151Z,8.60
2023-03-01T13:25:53.589Z,7.90
2023-03-01T13:28:21.025Z,7.40
2023-03-01T13:30:48.756Z,8.10
2023-03-01T13:33:16.277Z,7.50
2023-03-01T13:35:43.835Z,6.00
2023-03-01T13:38:11.494Z,6.90
2023-03-01T13:40:38.946Z,6.80
2023-03-01T13:43:06.541Z,5.60
2023-03-01T13:45:34.438Z,6.20
2023-03-01T13:48:05.832Z,6.60
2023-03-01T13:50:33.626Z,6.60
2023-03-01T13:53:01.143Z,6.60
2023-03-01T13:55:28.663Z,6.60
2023-03-01T13:57:56.355Z,7.00
2023-03-01T14:00:24.420Z,7.50
2023-03-01T14:02:56.063Z,6.00
2023-03-01T14:05:29.965Z,6.60
2023-03-01T14:07:57.465Z,8.00
2023-03-01T14:10:24.997Z,4.70
2023-03-01T14:12:52.572Z,6.40
2023-03-01T14:15:20.317Z,6.10
2023-03-01T14:17:47.777Z,5.80
2023-03-01T14:20:15.429Z,6.60
2023-03-01T14:22:43.603Z,5.90
2023-03-01T14:25:11.033Z,6.20
2023-03-01T14:27:40.600Z,7.80
2023-03-01T14:30:08.093Z,14.50
2023-03-01T14:32:35.683Z,7.70
2023-03-01T14:35:03.286Z,7.40
2023-03-01T14:37:30.998Z,9.90
2023-03-01T14:39:58.566Z,8.10
2023-03-01T14:42:27.012Z,8.60
2023-03-01T14:44:54.486Z,8.70
2023-03-01T14:47:23.801Z,9.50
2023-03-01T14:49:51.455Z,8.10
2023-03-01T14:52:19.380Z,8.50
2023-03-01T14:54:46.900Z,9.70
2023-03-01T14:57:14.526Z,10.60
2023-03-01T14:59:45.152Z,10.60
2023-03-01T15:02:12.621Z,10.30
2023-03-01T15:04:40.270Z,10.50
2023-03-01T15:07:07.710Z,9.00
2023-03-01T15:09:35.205Z,14.50
2023-03-01T15:12:02.711Z,11.50
2023-03-01T15:14:30.342Z,8.20
2023-03-01T15:16:57.842Z,9.20
2023-03-01T15:19:28.234Z,9.50
2023-03-01T15:21:55.952Z,10.30
2023-03-01T15:24:23.445Z,8.70
2023-03-01T15:26:52.045Z,8.60
2023-03-01T15:29:19.608Z,9.20
2023-03-01T15:31:47.046Z,8.60
2023-03-01T15:34:14.615Z,8.90
2023-03-01T15:36:42.332Z,7.70
2023-03-01T15:39:09.916Z,6.60
2023-03-01T15:41:37.486Z,8.20
2023-03-01T15:44:05.262Z,7.80
2023-03-01T15:46:33.669Z,6.30
2023-03-01T15:49:01.594Z,7.10
2023-03-01T15:51:29.840Z,6.90
2023-03-01T15:53:58.939Z,7.10
2023-03-01T15:56:26.486Z,7.40
2023-03-01T15:58:54.002Z,7.10
2023-03-01T16:01:22.036Z,8.90
2023-03-01T16:03:49.688Z,8.50
2023-03-01T16:06:17.205Z,8.80
2023-03-01T16:08:44.679Z,8.90
2023-03-01T16:11:12.246Z,8.40
2023-03-01T16:13:39.838Z,9.10
2023-03-01T16:16:08.551Z,10.10
2023-03-01T16:18:36.188Z,11.10
2023-03-01T16:21:03.713Z,9.50
2023-03-01T16:23:31.315Z,10.50
2023-03-01T16:25:58.887Z,10.40
2023-03-01T16:28:29.252Z,14.00
2023-03-01T16:30:56.942Z,12.20
2023-03-01T16:33:31.862Z,7.80
2023-03-01T16:36:03.145Z,9.80
2023-03-01T16:38:30.820Z,10.10
2023-03-01T16:40:58.362Z,10.80
2023-03-01T16:43:26.127Z,8.80
2023-03-01T16:45:54.066Z,12.10
2023-03-01T16:48:21.848Z,12.20
2023-03-01T16:50:49.302Z,12.10
2023-03-01T16:53:16.800Z,13.00
2023-03-01T16:55:46.447Z,15.20
2023-03-01T16:58:16.422Z,14.90
2023-03-01T17:00:43.952Z,15.30
2023-03-01T17:03:12.037Z,12.40
2023-03-01T17:05:39.606Z,12.00
2023-03-01T17:08:08.970Z,12.90
2023-03-01T17:10:36.603Z,12.30
2023-03-01T17:13:04.680Z,15.00
2023-03-01T17:15:32.263Z,13.40
2023-03-01T17:17:59.800Z,15.60
2023-03-01T17:20:27.277Z,13.40
2023-03-01T17:22:54.854Z,15.10
2023-03-01T17:25:22.613Z,15.40
2023-03-01T17:27:50.307Z,15.30
2023-03-01T17:30:18.014Z,16.80
2023-03-01T17:32:45.633Z,18.30
2023-03-01T17:35:13.230Z,21.00
2023-03-01T17:37:46.475Z,20.80
2023-03-01T17:40:14.390Z,22.40
2023-03-01T17:42:42.068Z,20.90
2023-03-01T17:45:09.858Z,18.60
2023-03-01T17:47:37.883Z,16.50
2023-03-01T17:50:06.465Z,14.30
2023-03-01T17:52:34.069Z,13.50
2023-03-01T17:55:01.640Z,14.80
2023-03-01T17:57:29.188Z,13.80
2023-03-01T17:59:57.000Z,15.30
2023-03-01T18:02:26.519Z,14.90
2023-03-01T18:04:55.577Z,16.90
2023-03-01T18:07:23.455Z,17.10
2023-03-01T18:09:51.323Z,17.50
2023-03-01T18:12:19.063Z,19.80
2023-03-01T18:14:48.404Z,18.60
2023-03-01T18:17:16.178Z,17.10
2023-03-01T18:19:44.363Z,14.80
2023-03-01T18:22:12.159Z,16.90
2023-03-01T18:24:39.758Z,18.00
2023-03-01T18:27:10.386Z,19.10
2023-03-01T18:29:38.117Z,16.70
2023-03-01T18:32:05.756Z,18.80
2023-03-01T18:34:35.392Z,25.30
2023-03-01T18:37:10.434Z,29.40
2023-03-01T18:39:38.924Z,31.60
2023-03-01T18:42:08.114Z,26.30
2023-03-01T18:44:36.681Z,28.40
2023-03-01T18:47:04.178Z,33.30
2023-03-01T18:49:33.070Z,21.90
2023-03-01T18:52:00.846Z,32.00
2023-03-01T18:54:28.431Z,37.80
2023-03-01T18:56:56.524Z,39.60
2023-03-01T18:59:24.272Z,48.20
2023-03-01T19:01:51.874Z,45.20
2023-03-01T19:04:19.498Z,46.50
2023-03-01T19:06:47.091Z,41.30
2023-03-01T19:09:15.659Z,38.00
2023-03-01T19:11:43.215Z,40.30
2023-03-01T19:14:13.047Z,42.70
2023-03-01T19:16:40.683Z,31.40
2023-03-01T19:19:10.277Z,45.90
2023-03-01T19:21:38.062Z,46.40
2023-03-01T19:24:08.530Z,45.10
2023-03-01T19:26:36.542Z,53.00
2023-03-01T19:29:06.309Z,44.00
2023-03-01T19:31:35.298Z,47.60
2023-03-01T19:34:10.999Z,48.70
2023-03-01T19:36:39.179Z,42.40
2023-03-01T19:39:06.757Z,36.20
2023-03-01T19:41:34.581Z,40.40
2023-03-01T19:44:06.131Z,23.90
2023-03-01T19:46:35.874Z,37.20
2023-03-01T19:49:03.745Z,50.60
2023-03-01T19:51:33.581Z,56.20
2023-03-01T19:54:02.010Z,56.30
2023-03-01T19:56:30.248Z,52.40
2023-03-01T19:59:01.319Z,47.60
2023-03-01T20:01:29.891Z,48.10
2023-03-01T20:03:58.013Z,43.40
2023-03-01T20:06:25.854Z,41.30
2023-03-01T20:08:56.525Z,43.10
2023-03-01T20:11:24.742Z,42.10
2023-03-01T20:13:52.914Z,40.60
2023-03-01T20:16:21.078Z,41.60
2023-03-01T20:18:48.804Z,35.70
2023-03-01T20:21:24.179Z,33.30
2023-03-01T20:23:53.841Z,33.00
2023-03-01T20:26:21.484Z,34.50
2023-03-01T20:28:49.146Z,35.50
2023-03-01T20:31:17.174Z,31.90
2023-03-01T20:33:44.901Z,31.50
2023-03-01T20:36:12.787Z,27.90
2023-03-01T20:38:40.735Z,27.30
2023-03-01T20:41:08.255Z,33.20
2023-03-01T20:43:35.885Z,36.60
2023-03-01T20:46:03.575Z,38.70
2023-03-01T20:48:31.217Z,30.00
2023-03-01T20:51:01.733Z,23.80
2023-03-01T20:53:30.878Z,24.50
2023-03-01T20:55:59.083Z,21.90
2023-03-01T20:58:26.647Z,21.10
2023-03-01T21:00:55.478Z,23.90
2023-03-01T21:03:23.001Z,29.00
2023-03-01T21:05:50.538Z,34.00
2023-03-01T21:08:18.146Z,24.70
2023-03-01T21:10:45.630Z,27.80
2023-03-01T21:13:13.205Z,35.40
2023-03-01T21:15:41.428Z,35.40
2023-03-01T21:18:09.516Z,35.20
2023-03-01T21:20:42.684Z,35.70
2023-03-01T21:23:10.202Z,36.40
2023-03-01T21:25:37.696Z,36.50
2023-03-01T21:28:05.207Z,41.70
2023-03-01T21:30:32.688Z,37.10
2023-03-01T21:33:00.382Z,34.40
2023-03-01T21:35:27.921Z,31.20
2023-03-01T21:37:55.502Z,30.00
2023-03-01T21:40:22.989Z,38.50
2023-03-01T21:42:50.545Z,41.70
2023-03-01T21:45:17.993Z,47.00
2023-03-01T21:47:45.663Z,48.00
2023-03-01T21:50:13.247Z,45.20
2023-03-01T21:52:41.321Z,47.70
2023-03-01T21:55:09.212Z,48.60
2023-03-01T21:57:43.680Z,47.90
2023-03-01T22:00:12.951Z,53.70
2023-03-01T22:02:40.515Z,56.40
2023-03-01T22:05:08.177Z,45.00
2023-03-01T22:07:35.894Z,40.50
2023-03-01T22:10:03.514Z,50.70
2023-03-01T22:12:31.129Z,39.80
2023-03-01T22:14:59.222Z,38.70
2023-03-01T22:17:26.766Z,38.00
2023-03-01T22:19:54.318Z,28.40
2023-03-01T22:22:21.856Z,35.80
2023-03-01T22:24:49.538Z,40.30
2023-03-01T22:27:17.055Z,43.10
2023-03-01T22:29:44.512Z,37.90
2023-03-01T22:32:12.282Z,37.00
2023-03-01T22:34:40.081Z,39.60
2023-03-01T22:37:07.576Z,41.40
2023-03-01T22:39:35.014Z,38.60
2023-03-01T22:42:02.687Z,40.00
2023-03-01T22:44:30.162Z,34.60
2023-03-01T22:46:57.639Z,41.10
2023-03-01T22:49:25.295Z,41.10
2023-03-01T22:51:53.314Z,40.90
2023-03-01T22:54:20.886Z,39.70
2023-03-01T22:56:48.469Z,40.20
2023-03-01T22:59:16.005Z,44.00
2023-03-01T23:01:46.374Z,48.40
2023-03-01T23:04:14.805Z,58.30
2023-03-01T23:06:53.673Z,56.50
2023-03-01T23:09:21.461Z,50.40
2023-03-01T23:11:48.988Z,50.40
2023-03-01T23:14:16.811Z,49.40
2023-03-01T23:16:44.356Z,50.30
2023-03-01T23:19:11.896Z,52.90
2023-03-01T23:21:44.244Z,53.60
2023-03-01T23:24:11.825Z,172.80
2023-03-01T23:26:40.414Z,58.70
2023-03-01T23:29:07.916Z,51.20
2023-03-01T23:31:35.420Z,44.10
2023-03-01T23:34:03.034Z,42.80
2023-03-01T23:36:31.374Z,46.10
2023-03-01T23:38:59.102Z,45.60
2023-03-01T23:41:26.631Z,45.90
2023-03-01T23:43:54.190Z,38.40
2023-03-01T23:46:22.046Z,40.50
2023-03-01T23:48:49.611Z,40.10
2023-03-01T23:51:17.751Z,41.30
2023-03-01T23:53:54.318Z,40.60
2023-03-01T23:56:26.158Z,39.30
2023-03-01T23:58:53.710Z,39.40
